Redwood Falls Municipal Airport
KRWF : now visible

Airfield :











YOU CAN JOIN US ON...

 
LOGIN :

Register | Disclaimer

   EN    FR    IT 

 









Legend :    VFR   Marginal VFR   IFR   Intensive IFR   Very Intensive IFR
Visi :
Ceiling :
>= 8 km
>= 3000ft
5 to 8 km
1000 to 3000 ft
1500m to 5 km
500 to 1000 ft
800 to 1500m
200 to 500 ft
< 800m
< 200 ft
Symbols :   Thunderstorms  Fog  Heavy snow  Heavy precipitations  Wind > 20 kt






- Airport Elevation : 1024 ft


KRWF - Redwood Falls Municipal

CURRENT METAR :
  • 252353Z AUTO 29012KT 10SM CLR 22/14 A2985 RMK AO2 SLP106 T02220144 10244 20217 55001

EXPIRED METARs :
  • 252253Z AUTO 33008KT 10SM CLR 24/16 A2983 RMK AO2 SLP100 T02440156
  • 252153Z AUTO 28009KT 10SM FEW090 24/16 A2985 RMK AO2 SLP104 T02390156

TAF KRWF
Valid from the 26 at 00:00 until the 27 at 00:00 UTC


252320Z 2600/2624 32005KT P6SM BKN070
FM260600 VRB03KT 6SM -SHRA BR OVC018
FM261400 31007KT 4SM BR OVC009
FM261800 32005KT P6SM OVC012
KZMP FIR / North America



MET'MAP, your aeronautical weather chart ! - Copyright ORBIFLY December 2007 - Disclaimer

ORBIFLY MET'MAP TEAM :

Programming & Development : Alexandra Zaïnal
Concept & original design : Baudouin d'Aumeries
Assistance for programming : Marc-Olivier Méhu
Technical & hardware support : Manuel Goepfert

Contact : metmap@orbifly.com




SOURCES & CREDITS :

   NOAA       Earth
Advisory